Latest Weather Observations for Curtin

IDW60801

Issued at 10:43 pm WST Friday 28 February 2020 (issued every 10 minutes, with the page automatically refreshed every 10 minutes)

About weather observations | Map of weather stations | Latest weather observations for WA | Other Formats
Station Details ID: 003080 Name: CURTIN AERO Lat: -17.58 Lon: 123.83 Height: 77.5 m
Data from the previous 72 hours. | See also: Recent months at Curtin
Date/Time
WST
Temp
°C
App
Temp
°C
Dew
Point
°C
Rel
Hum
%
Delta-T
°C
Wind Press
QNH
hPa
Press
MSL
hPa
Rain since
9am
mm
Dir  Spd
km/h
Gust
km/h
Spd
kts
Gust
kts
28/10:30pm 29.3 31.5 23.3 70 4.1 SE 17 26 9 14 1002.5 1001.9 0.0
28/10:00pm 28.8 31.6 23.7 74 3.5 SSE 15 20 8 11 1002.6 1002.0 0.0
28/09:30pm 29.0 31.9 23.9 74 3.5 SE 15 20 8 11 1002.6 1002.0 0.0
28/09:00pm 29.1 32.0 24.4 76 3.3 SE 17 22 9 12 1002.5 1001.9 0.0
28/08:30pm 29.2 31.7 24.5 76 3.3 SSE 19 26 10 14 1002.2 1001.6 0.0
28/08:00pm 29.2 30.6 23.6 72 3.9 SSE 22 33 12 18 1002.1 1001.5 0.0
28/07:30pm 29.6 30.4 23.1 68 4.5 SSE 24 32 13 17 1001.6 1001.0 0.0
28/07:00pm 28.4 30.6 23.3 74 3.5 SSE 17 22 9 12 1001.7 1001.1 0.0
28/06:30pm 27.9 30.0 23.1 75 3.3 S 17 22 9 12 1001.7 1001.1 0.0
28/06:00pm 29.7 28.5 20.8 58 6.0 SSE 28 41 15 22 1001.7 1001.1 0.0
28/05:35pm 30.3 30.5 23.5 67 4.7 SE 28 48 15 26 1001.1 1000.6 0.0
28/05:30pm 29.9 31.5 23.8 70 4.2 SE 22 37 12 20 1000.8 1000.2 0.0
28/05:00pm 32.0 32.2 22.1 55 6.8 E 24 35 13 19 999.5 998.9 0.0
28/04:49pm 34.6 33.3 21.3 46 9.0 SE 30 54 16 29 999.3 998.7 0.0
28/04:48pm 34.8 33.2 20.7 43 9.5 SE 30 54 16 29 999.3 998.7 0.0
28/04:47pm 35.9 34.2 20.6 41 10.3 SE 30 54 16 29 999.3 998.7 0.0
28/04:30pm 37.4 35.1 20.2 36 11.6 SSE 32 41 17 22 998.6 998.0 0.0
28/04:00pm 37.9 36.2 19.8 35 12.2 SSE 28 41 15 22 998.6 998.0 0.0
28/03:50pm 37.9 36.4 20.2 35 12.0 SSE 28 46 15 25 998.5 997.9 0.0
28/03:30pm 37.1 35.9 20.0 37 11.5 S 26 37 14 20 998.6 998.0 0.0
28/03:00pm 36.4 36.4 20.2 38 10.9 S 20 28 11 15 999.2 998.6 0.0
28/02:30pm 35.8 36.1 20.5 41 10.3 SSE 19 24 10 13 999.7 999.1 0.0
28/02:00pm 35.3 36.2 20.8 42 9.8 SE 17 26 9 14 1000.3 999.7 0.0
28/01:30pm 35.6 35.1 20.7 41 10.1 SE 24 35 13 19 1000.8 1000.2 0.0
28/01:00pm 36.4 35.8 20.6 39 10.7 SSE 24 39 13 21 1001.3 1000.7 0.0
28/12:30pm 36.0 35.3 20.3 40 10.6 SE 24 35 13 19 1002.1 1001.5 0.0
28/12:00pm 35.9 36.1 20.6 41 10.4 SE 20 32 11 17 1002.4 1001.8 0.0
28/11:30am 36.8 36.2 20.6 39 11.0 SE 24 39 13 21 1002.9 1002.3 0.0
28/11:00am 35.8 36.6 21.3 43 9.9 SSE 19 30 10 16 1003.4 1002.8 0.0
28/10:30am 35.3 36.7 22.6 47 8.8 S 19 32 10 17 1003.9 1003.3 0.0
28/10:00am 34.9 36.3 23.6 52 7.9 SSE 22 30 12 16 1004.4 1003.8 0.0
28/09:30am 33.4 35.8 23.7 56 6.8 S 17 26 9 14 1004.6 1004.0 0.0
28/09:00am 32.5 34.8 24.5 62 5.6 SSW 20 28 11 15 1004.7 1004.1 7.8
28/08:30am 30.9 33.7 25.3 72 4.0 SSW 20 30 11 16 1005.0 1004.4 7.8
28/08:00am 30.0 33.2 26.4 81 2.6 SSW 22 30 12 16 1005.1 1004.5 7.8
28/07:30am 29.2 32.2 26.2 84 2.1 SW 22 30 12 16 1004.8 1004.2 7.8
28/07:00am 28.6 32.2 26.4 88 1.6 SSW 20 24 11 13 1004.7 1004.1 7.8
28/06:30am 27.5 31.9 26.8 96 0.5 SW 17 20 9 11 1004.6 1004.0 7.8
28/06:00am 27.0 31.4 26.8 99 0.1 SSW 17 20 9 11 1004.5 1003.9 7.8
28/05:30am 26.8 31.6 26.8 100 0.0 SW 15 19 8 10 1004.2 1003.6 7.8
28/05:00am 26.7 31.4 26.7 100 0.0 SW 15 19 8 10 1004.1 1003.5 7.8
28/04:30am 26.7 32.2 26.7 100 0.0 SW 11 15 6 8 1004.2 1003.6 7.8
28/04:00am 27.0 32.2 26.8 99 0.1 SW 13 15 7 8 1004.0 1003.4 7.8
28/03:30am 26.6 31.5 26.4 99 0.1 SW 13 15 7 8 1004.0 1003.4 7.8
28/03:00am 26.6 32.1 26.1 97 0.4 SW 9 13 5 7 1004.2 1003.6 7.8
28/02:30am 26.7 31.7 26.0 96 0.5 WSW 11 15 6 8 1004.1 1003.5 7.8
28/02:00am 26.7 32.0 25.8 95 0.6 SW 9 11 5 6 1004.0 1003.4 7.8
28/01:30am 26.9 31.6 25.5 92 1.0 WSW 11 15 6 8 1003.8 1003.2 7.8
28/01:00am 27.0 31.1 25.2 90 1.3 SW 13 17 7 9 1004.5 1003.9 7.8
28/12:30am 27.0 31.6 24.8 88 1.5 SW 9 13 5 7 1004.8 1004.2 7.8
28/12:00am 27.0 30.7 24.5 86 1.7 SW 13 15 7 8 1004.6 1004.0 7.8
 
Date/Time
WST
Temp
°C
App
Temp
°C
Dew
Point
°C
Rel
Hum
%
Delta-T
°C
Wind Press
QNH
hPa
Press
MSL
hPa
Rain since
9am
mm
Dir  Spd
km/h
Gust
km/h
Spd
kts
Gust
kts
27/11:30pm 27.2 30.6 24.1 83 2.1 SW 13 15 7 8 1005.0 1004.4 7.8
27/11:00pm 27.5 30.3 23.7 80 2.6 WSW 15 20 8 11 1005.4 1004.8 7.8
27/10:30pm 27.6 30.6 24.0 81 2.5 SW 15 20 8 11 1005.5 1004.9 7.8
27/10:00pm 27.7 31.3 24.3 82 2.4 WSW 13 15 7 8 1005.6 1005.0 7.8
27/09:30pm 27.8 32.2 25.0 85 2.0 WSW 11 15 6 8 1005.3 1004.7 7.8
27/09:00pm 28.1 32.1 25.1 84 2.1 WSW 13 17 7 9 1005.2 1004.6 7.8
27/08:30pm 28.6 32.1 24.8 80 2.7 WSW 15 19 8 10 1005.0 1004.4 7.8
27/08:00pm 28.5 34.0 26.1 87 1.7 WNW 9 11 5 6 1004.2 1003.6 7.8
27/07:30pm 28.4 33.0 25.4 84 2.1 WNW 11 17 6 9 1004.0 1003.4 7.8
27/07:00pm 28.5 31.3 25.3 83 2.3 SW 20 28 11 15 1003.6 1003.0 7.8
27/06:30pm 29.5 32.7 25.0 77 3.2 W 17 20 9 11 1003.2 1002.6 7.8
27/06:00pm 29.9 34.9 24.8 74 3.6 NW 7 11 4 6 1003.3 1002.7 7.8
27/05:30pm 30.1 33.7 23.8 69 4.4 WNW 11 17 6 9 1002.6 1002.0 7.8
27/05:00pm 29.1 33.9 25.1 79 2.8 N 9 15 5 8 1002.2 1001.6 7.8
27/04:30pm 28.3 31.5 24.3 79 2.8 NNE 15 20 8 11 1002.6 1002.0 7.8
27/04:19pm 28.2 31.0 23.6 76 3.2 NNE 15 20 8 11 1002.5 1001.9 7.8
27/04:00pm 26.9 24.3 23.6 82 2.3 ESE 43 80 23 43 1002.0 1001.4 7.8
27/03:58pm 25.9 23.8 23.0 84 2.0 SE 39 76 21 41 1003.5 1002.9 6.0
27/03:56pm 25.7 24.2 24.1 91 1.1 SSE 39 76 21 41 1003.7 1003.1 3.6
27/03:54pm 25.9 25.0 23.8 88 1.4 SSE 35 76 19 41 1003.3 1002.7 1.6
27/03:53pm 25.8 24.8 22.7 83 2.1 SSE 32 76 17 41 1002.9 1002.3 0.8
27/03:51pm 30.1 31.8 23.0 65 4.9 SE 19 76 10 41 1002.6 1002.0 0.0
27/03:50pm 32.1 35.4 23.9 62 5.7 E 13 52 7 28 1002.6 1002.0 0.0
27/03:30pm 37.6 39.6 22.9 43 10.3 SW 17 26 9 14 1002.2 1001.6 0.0
27/03:00pm 37.7 41.0 22.6 42 10.5 SSE 9 19 5 10 1002.4 1001.8 0.0
27/02:30pm 37.5 42.3 23.5 44 9.8 WNW 4 11 2 6 1003.0 1002.4 0.0
27/02:00pm 37.1 40.0 23.9 46 9.3 SW 15 24 8 13 1003.4 1002.8 0.0
27/01:30pm 37.7 40.5 23.7 44 9.9 S 15 22 8 12 1003.7 1003.1 0.0
27/01:00pm 37.2 41.0 24.0 46 9.3 S 11 22 6 12 1004.2 1003.6 0.0
27/12:30pm 36.7 39.6 23.9 47 9.0 SW 15 24 8 13 1005.0 1004.4 0.0
27/12:00pm 36.0 38.9 23.2 47 9.0 SSW 13 26 7 14 1005.5 1004.9 0.0
27/11:30am 35.1 38.7 24.4 54 7.6 S 13 24 7 13 1005.8 1005.2 0.0
27/11:00am 34.7 37.9 24.9 56 7.0 SW 17 26 9 14 1006.2 1005.6 0.0
27/10:30am 33.6 36.8 25.0 60 6.1 WSW 17 24 9 13 1006.4 1005.8 0.0
27/10:00am 32.7 36.1 25.8 67 4.9 SSW 19 28 10 15 1006.7 1006.1 0.0
27/09:30am 32.2 35.7 26.0 70 4.4 SW 19 24 10 13 1006.9 1006.3 0.0
27/09:00am 30.9 34.5 26.4 77 3.2 WSW 20 30 11 16 1007.0 1006.4 0.0
27/08:30am 30.0 34.5 26.4 81 2.6 WSW 15 19 8 10 1006.9 1006.3 0.0
27/08:00am 29.5 34.3 26.3 83 2.3 WSW 13 17 7 9 1007.1 1006.5 0.0
27/07:30am 29.1 33.7 25.9 83 2.3 SSW 13 19 7 10 1007.8 1007.2 0.0
27/07:00am 28.9 33.5 25.9 84 2.1 WSW 13 17 7 9 1007.1 1006.5 0.0
27/06:30am 28.6 33.4 26.2 87 1.7 WSW 13 17 7 9 1006.6 1006.0 0.0
27/06:00am 28.4 32.8 26.2 88 1.6 WSW 15 20 8 11 1006.0 1005.4 0.0
27/05:30am 28.3 32.7 26.3 89 1.4 W 15 20 8 11 1005.8 1005.2 0.0
27/05:00am 28.2 32.1 26.0 88 1.6 WNW 17 24 9 13 1005.4 1004.8 0.0
27/04:30am 28.1 32.4 26.1 89 1.4 NNW 15 20 8 11 1005.7 1005.1 0.0
27/04:00am 28.1 32.4 26.1 89 1.4 NNE 15 20 8 11 1006.5 1005.9 0.0
27/03:30am 27.8 34.8 25.8 89 1.4 CALM 0 4 0 2 1006.0 1005.4 0.0
27/03:00am 27.7 33.3 25.7 89 1.4 NNW 7 11 4 6 1005.6 1005.0 0.0
27/02:30am 27.8 33.2 25.4 87 1.7 N 7 11 4 6 1005.4 1004.8 0.0
27/02:00am 28.1 33.6 25.3 85 2.0 NW 6 9 3 5 1005.5 1004.9 0.0
27/01:30am 28.2 33.5 25.2 84 2.1 NW 7 11 4 6 1005.4 1004.8 0.0
27/01:00am 28.1 32.9 25.1 84 2.1 NNW 9 13 5 7 1005.5 1004.9 0.0
27/12:30am 28.4 33.6 24.8 81 2.5 NW 6 9 3 5 1005.7 1005.1 0.0
27/12:00am 28.7 33.8 24.9 80 2.7 NW 7 13 4 7 1005.7 1005.1 0.0
 
Date/Time
WST
Temp
°C
App
Temp
°C
Dew
Point
°C
Rel
Hum
%
Delta-T
°C
Wind Press
QNH
hPa
Press
MSL
hPa
Rain since
9am
mm
Dir  Spd
km/h
Gust
km/h
Spd
kts
Gust
kts
26/11:30pm 28.6 33.9 25.0 81 2.5 NW 6 7 3 4 1005.5 1004.9 0.0
26/11:00pm 29.1 33.8 24.9 78 3.0 W 9 11 5 6 1005.2 1004.6 0.0
26/10:30pm 29.4 33.5 25.2 78 3.0 WNW 13 19 7 10 1005.4 1004.8 0.0
26/10:00pm 29.6 34.4 25.1 77 3.2 WNW 9 13 5 7 1005.9 1005.3 0.0
26/09:30pm 29.9 34.5 25.4 77 3.2 WNW 11 17 6 9 1005.6 1005.0 0.0
26/09:00pm 30.2 34.8 25.3 75 3.5 WNW 11 15 6 8 1005.4 1004.8 0.0
26/08:30pm 30.4 34.4 25.0 73 3.8 NW 13 19 7 10 1005.1 1004.5 0.0
26/08:00pm 30.7 35.1 25.1 72 4.0 NW 11 15 6 8 1004.4 1003.8 0.0
26/07:30pm 31.0 36.2 26.3 76 3.4 NW 11 15 6 8 1003.9 1003.3 0.0
26/07:00pm 31.4 36.6 26.9 77 3.3 NW 13 20 7 11 1003.9 1003.3 0.0
26/06:30pm 31.7 37.3 26.3 73 3.9 NW 9 15 5 8 1003.8 1003.2 0.0
26/06:00pm 32.4 36.6 26.0 69 4.6 NW 15 24 8 13 1003.5 1002.9 0.0
26/05:30pm 33.2 37.3 25.7 64 5.4 NW 15 22 8 12 1003.4 1002.8 0.0
26/05:00pm 34.7 38.3 26.1 61 6.2 NW 19 26 10 14 1003.0 1002.4 0.0
26/04:30pm 35.4 38.4 25.6 57 7.0 NW 20 30 11 16 1003.0 1002.4 0.0
26/04:00pm 36.4 39.4 25.3 53 8.0 NW 19 28 10 15 1002.8 1002.2 0.0
26/03:30pm 37.0 39.2 21.9 41 10.4 SW 13 20 7 11 1003.2 1002.6 0.0
26/03:00pm 37.3 39.7 23.0 43 10.0 WSW 15 24 8 13 1003.3 1002.7 0.0
26/02:30pm 37.9 40.4 22.4 41 10.8 WSW 13 30 7 16 1003.8 1003.2 0.0
26/02:00pm 36.7 40.4 23.2 46 9.5 WSW 9 20 5 11 1004.0 1003.4 0.0
26/01:30pm 36.9 39.3 23.7 46 9.3 WSW 17 26 9 14 1004.2 1003.6 0.0
26/01:00pm 35.5 37.4 23.5 50 8.4 WSW 19 26 10 14 1004.6 1004.0 0.0
26/12:30pm 35.6 38.0 23.6 50 8.4 SW 17 30 9 16 1005.0 1004.4 0.0
26/12:00pm 35.8 38.8 24.7 52 7.9 WSW 17 28 9 15 1005.6 1005.0 0.0
26/11:30am 34.5 37.6 24.1 54 7.3 WNW 15 24 8 13 1006.1 1005.5 0.0
26/11:00am 33.9 36.3 23.6 55 7.2 W 17 26 9 14 1006.4 1005.8 0.0
26/10:30am 33.7 36.5 24.3 58 6.6 WNW 17 28 9 15 1006.8 1006.2 0.0
26/10:00am 32.9 36.1 24.9 63 5.7 W 17 26 9 14 1007.0 1006.4 0.0
26/09:30am 32.5 35.8 25.1 65 5.2 W 17 26 9 14 1007.2 1006.6 0.0
26/09:00am 31.1 34.1 24.7 68 4.5 W 17 30 9 16 1007.3 1006.7 0.0
26/08:30am 30.2 33.4 25.5 76 3.3 W 19 32 10 17 1007.5 1006.9 0.0
26/08:22am 29.9 33.4 25.4 77 3.2 W 17 28 9 15 1007.5 1006.9 0.0
26/08:00am 29.5 33.1 26.1 82 2.4 W 19 24 10 13 1007.5 1006.9 0.0
26/07:30am 28.8 34.2 26.6 88 1.6 W 11 17 6 9 1007.5 1006.9 0.0
26/07:28am 28.7 34.0 26.5 88 1.6 W 11 17 6 9 1007.5 1006.9 0.0
26/07:00am 27.8 33.6 26.6 93 0.9 NW 9 13 5 7 1007.0 1006.4 0.0
26/06:30am 26.4 32.6 26.4 100 0.0 NNW 6 7 3 4 1006.8 1006.2 0.0
26/06:00am 25.9 31.8 25.9 100 0.0 W 6 9 3 5 1006.3 1005.7 0.0
26/05:30am 25.7 32.1 25.5 99 0.1 W 2 6 1 3 1006.1 1005.5 0.0
26/05:00am 26.1 32.0 25.9 99 0.1 W 6 7 3 4 1005.6 1005.0 0.0
26/04:30am 26.2 31.9 25.9 98 0.2 W 7 9 4 5 1005.5 1004.9 0.0
26/04:00am 26.4 32.2 26.1 98 0.2 WSW 7 9 4 5 1005.3 1004.7 0.0
26/03:30am 26.4 32.3 25.9 97 0.4 W 6 7 3 4 1005.2 1004.6 0.0
26/03:00am 26.5 32.3 25.8 96 0.5 W 6 9 3 5 1005.1 1004.5 0.0
26/02:30am 26.7 32.5 25.8 95 0.6 W 6 7 3 4 1005.0 1004.4 0.0
26/02:00am 26.9 32.1 25.7 93 0.8 NW 9 13 5 7 1005.0 1004.4 0.0
26/01:30am 27.2 32.3 25.6 91 1.1 NW 9 15 5 8 1005.4 1004.8 0.0
26/01:00am 27.6 32.7 25.6 89 1.4 WNW 9 13 5 7 1005.7 1005.1 0.0
26/12:30am 28.1 33.7 25.7 87 1.7 WNW 7 11 4 6 1005.9 1005.3 0.0
26/12:00am 28.6 33.3 25.6 84 2.1 W 11 15 6 8 1006.1 1005.5 0.0
 
Date/Time
WST
Temp
°C
App
Temp
°C
Dew
Point
°C
Rel
Hum
%
Delta-T
°C
Wind Press
QNH
hPa
Press
MSL
hPa
Rain since
9am
mm
Dir  Spd
km/h
Gust
km/h
Spd
kts
Gust
kts
25/11:30pm 29.1 33.4 25.5 81 2.5 W 13 17 7 9 1006.3 1005.7 0.0
25/11:00pm 29.6 33.8 25.4 78 3.0 W 13 15 7 8 1006.5 1005.9 0.0

Other formats

Comma delimited format used in spreadsheet applications
http://www.bom.gov.au/fwo/IDW60801/IDW60801.94204.axf

JavaScript Object Notation format (JSON) in row-major order
http://www.bom.gov.au/fwo/IDW60801/IDW60801.94204.json

Data quality

Most of these data are generated automatically and are frequently updated. Quality checks on data are not normally performed. It is possible for incorrect values to appear. Refer to information at About Latest Weather Observations and please check the disclaimer before using these data.